Time;durP1;ratioP1;P1;durP2;ratioP2;P2;SDS_P1;SDS_P2;PMS_P1;PMS_P2;Temp;Humidity;BMP_temperature;BMP_pressure;BME280_temperature;BME280_humidity;BME280_pressure;Samples;Min_cycle;Max_cycle;Signal;HPM_P1;HPM_P2
2024/01/25 06:04:39;;;;;;;;;;;;;;;1.16;100.00;98729.48;1807483;78;20124;-73
2024/01/25 06:07:05;;;;;;;;;;;;;;;1.21;100.00;98725.44;1816436;78;20129;-72
2024/01/25 06:09:32;;;;;;;;;;;;;;;1.26;100.00;98727.38;1802477;78;20667;-72
2024/01/25 06:11:59;;;;;;;;;;;;;;;1.32;100.00;98721.56;1813232;78;20152;-72
2024/01/25 06:16:59;;;;;;;;;;;;;;;1.47;100.00;98725.25;1814689;78;20139;-76
2024/01/25 06:19:34;;;;;;;;;;;;;;;1.57;100.00;98722.70;1806781;78;20457;-71
2024/01/25 06:22:04;;;;;;;;;;;;;;;1.67;100.00;98729.11;1801942;77;20550;-68
2024/01/25 06:24:30;;;;;;;;;;;;;;;1.78;100.00;98728.67;1817401;78;20133;-69
2024/01/25 10:27:35;;;;;;;;;;;;;;;4.93;100.00;98661.07;1762855;80;20176;-72
2024/01/25 10:30:01;;;;;;;;;;;;;;;4.92;100.00;98652.95;1746020;82;20222;-71
2024/01/25 10:32:28;;;;;;;;;;;;;;;4.89;100.00;98648.80;1752652;81;20156;-72
2024/01/25 10:34:54;;;;;;;;;;;;;;;4.88;100.00;98646.30;1756106;82;20893;-70
2024/01/25 10:37:21;;;;;;;;;;;;;;;4.89;100.00;98650.55;1756358;82;20181;-69
2024/01/25 10:39:47;;;;;;;;;;;;;;;4.89;100.00;98643.64;1739359;81;20164;-71
2024/01/25 10:42:14;;;;;;;;;;;;;;;4.90;100.00;98645.76;1727865;82;20495;-71
2024/01/25 10:44:40;;;;;;;;;;;;;;;4.90;100.00;98645.30;1746214;81;20111;-70
2024/01/25 10:47:07;;;;;;;;;;;;;;;4.89;100.00;98641.06;1746680;80;20380;-75
2024/01/25 10:49:34;;;;;;;;;;;;;;;4.87;100.00;98641.60;1744657;80;20099;-76
2024/01/25 10:52:00;;;;;;;;;;;;;;;4.87;100.00;98642.05;1734896;80;20406;-72
2024/01/25 10:54:27;;;;;;;;;;;;;;;4.86;100.00;98644.27;1748193;80;20462;-70
2024/01/25 10:56:53;;;;;;;;;;;;;;;4.86;100.00;98639.11;1726123;83;20109;-79
2024/01/25 10:59:20;;;;;;;;;;;;;;;4.88;100.00;98647.13;1734609;82;20139;-71
2024/01/25 11:01:46;;;;;;;;;;;;;;;4.89;100.00;98638.48;1755426;80;20196;-70
2024/01/25 11:04:16;;;;;;;;;;;;;;;4.92;100.00;98647.34;1717752;82;20157;-71
2024/01/25 11:06:45;;;;;;;;;;;;;;;4.94;100.00;98649.83;1742349;82;20122;-68
2024/01/25 11:09:24;;;;;;;;;;;;;;;4.96;100.00;98650.58;1748609;82;20146;-73
2024/01/25 11:11:50;;;;;;;;;;;;;;;4.97;100.00;98650.95;1745165;82;20161;-70
2024/01/25 11:14:24;;;;;;;;;;;;;;;5.01;100.00;98643.42;1667801;84;20161;-70
2024/01/25 11:16:47;;;;;;;;;;;;;;;5.06;100.00;98647.05;1717536;82;20416;-68
2024/01/25 11:19:20;;;;;;;;;;;;;;;5.10;100.00;98644.66;1724742;82;20149;-67
2024/01/25 11:21:47;;;;;;;;;;;;;;;5.13;100.00;98645.78;1725227;81;20102;-68
2024/01/25 11:24:16;;;;;;;;;;;;;;;5.17;100.00;98641.66;1741778;82;20107;-68
2024/01/25 11:26:43;;;;;;;;;;;;;;;5.22;100.00;98649.95;1741850;82;20405;-68
2024/01/25 11:29:11;;;;;;;;;;;;;;;5.25;100.00;98645.91;1746297;81;20460;-67
2024/01/25 11:31:38;;;;;;;;;;;;;;;5.28;100.00;98646.19;1748475;82;20139;-67
2024/01/25 11:34:04;;;;;;;;;;;;;;;5.28;100.00;98649.60;1748879;82;20099;-67
2024/01/25 13:52:41;;;;;;;;;;;;;;;4.17;100.00;98676.77;1743724;81;20174;-68
2024/01/25 13:55:08;;;;;;;;;;;;;;;4.16;100.00;98672.53;1754841;81;20158;-69
2024/01/25 13:57:34;;;;;;;;;;;;;;;4.13;100.00;98670.94;1740234;81;20117;-72
2024/01/25 14:00:04;;;;;;;;;;;;;;;4.12;100.00;98673.59;1735041;83;20116;-73
2024/01/25 14:02:34;;;;;;;;;;;;;;;4.09;100.00;98678.45;1736755;81;20143;-71
2024/01/25 14:05:02;;;;;;;;;;;;;;;4.08;100.00;98683.22;1758920;81;20133;-71
2024/01/25 14:07:28;;;;;;;;;;;;;;;4.06;100.00;98677.77;1745156;81;20133;-71
2024/01/25 14:09:59;;;;;;;;;;;;;;;4.03;100.00;98679.59;1737289;82;20157;-72
2024/01/25 14:12:27;;;;;;;;;;;;;;;4.02;100.00;98688.68;1734669;83;20157;-68
2024/01/25 14:14:53;;;;;;;;;;;;;;;4.00;100.00;98691.33;1736845;83;20140;-70
2024/01/25 14:17:21;;;;;;;;;;;;;;;3.98;100.00;98691.06;1735773;83;20176;-70
2024/01/25 14:19:48;;;;;;;;;;;;;;;3.96;100.00;98689.02;1736499;83;20126;-71
2024/01/25 14:22:14;;;;;;;;;;;;;;;3.93;100.00;98690.00;1749115;81;20130;-70
2024/01/25 14:24:41;;;;;;;;;;;;;;;3.89;100.00;98700.53;1759024;81;20164;-71
2024/01/25 14:27:08;;;;;;;;;;;;;;;3.86;100.00;98695.53;1751980;81;20090;-71
2024/01/25 14:29:35;;;;;;;;;;;;;;;3.84;100.00;98705.08;1749574;81;20137;-71
2024/01/25 14:32:02;;;;;;;;;;;;;;;3.83;100.00;98700.38;1763511;81;20133;-71
2024/01/25 14:34:29;;;;;;;;;;;;;;;3.81;100.00;98701.36;1730066;81;20130;-69
2024/01/25 14:36:55;;;;;;;;;;;;;;;3.78;100.00;98695.91;1736381;82;20107;-72
